Aérodrome :
LOGIN :

S'inscrire | Disclaimer

   EN    FR    IT 

 










Légende :    VFR   VFR Marginal   IFR   IFR Intensif   IFR Très Intensif
Visi : 
Plafond : 
>= 8 km
>= 3000ft
5 à 8 km
1000 à 3000 ft
1500m à 5 km
500 à 1000 ft
800 à 1500m
200 à 500 ft
< 800m
< 200 ft
Symboles :   Orages  Brouillard  Fortes neiges  Fortes précipitations  Vent > 20 kt
SIGMETs :   Divers  Orages  Givrage  Turbulence  Onde Orograph.  Cendres Volcan.






- Altitude de l'aérodrome : 138 ft
- Code IATA : BIO


LEBB - Bilbao

DERNIER METAR :
  • 232130Z 29007KT 260V320 8000 -DZ BKN017 14/13 Q1024 TEMPO 3000 SHRA BKN010 SCT025TCU

METARs EXPIRÉS :
  • 232100Z 29006KT 250V310 8000 -DZ BKN018 BKN025 15/14 Q1024 TEMPO 3000 SHRA BKN010 SCT025TCU
  • 232030Z 28007KT 240V320 6000 -RADZ BKN018 15/13 Q1024 TEMPO 3000 SHRA BKN010 SCT025TCU
  • 232000Z 29008KT 6000 -RADZ BKN017 14/13 Q1023 TEMPO 3000 SHRA BKN010 SCT025TCU
  • 231930Z 29009KT 7000 -RADZ BKN018 BKN026 15/14 Q1023 TEMPO 3000 SHRA BKN010 SCT025TCU
  • 231900Z 29009KT 260V320 8000 -RA BKN017 15/14 Q1023 TEMPO 3000 SHRA BKN010 SCT025TCU

TAF TAF LEBB
Valide du 23 à 18h jusqu'au 24 à 18h UTC


231700Z 2318/2418 28009KT 9000 SCT010 BKN020 TX19/2412Z TN14/2406Z
TEMPO 2318/2412 3000 RA SHRA BKN010 SCT025TCU
PROB40
TEMPO 2318/2320 30015G25KT 1500 +SHRA BKN005 BKN020TCU
PROB30
TEMPO 2318/2320 TS SCT030CB



MET'MAP, la Météo Aéronautique d'un coup d'oeil ! - Copyright ORBIFLY Décembre 2007 - Disclaimer

ORBIFLY MET'MAP TEAM :

Programmation & Développement : Alexandra Zaïnal
Sur une idée originale de : Baudouin d'Aumeries
Assistance à la programmation : Marc-Olivier Méhu
Soutien technique & logistique : Manuel Goepfert

Contact : metmap@orbifly.com




SOURCES & CREDITS :

   NOAA